sensor_id;sensor_type;location;lat;lon;timestamp;P1;durP1;ratioP1;P2;durP2;ratioP2
4508;SDS011;2267;48.816;9.230;2022-07-06T00:16:15;3.40;;;2.50;;
4508;SDS011;2267;48.816;9.230;2022-07-06T00:18:42;4.15;;;2.08;;
4508;SDS011;2267;48.816;9.230;2022-07-06T00:21:09;4.13;;;2.38;;
4508;SDS011;2267;48.816;9.230;2022-07-06T00:23:36;2.50;;;2.17;;
4508;SDS011;2267;48.816;9.230;2022-07-06T00:26:03;3.08;;;2.30;;
4508;SDS011;2267;48.816;9.230;2022-07-06T00:28:29;4.00;;;2.38;;
4508;SDS011;2267;48.816;9.230;2022-07-06T00:30:56;3.47;;;2.53;;
4508;SDS011;2267;48.816;9.230;2022-07-06T00:33:23;3.00;;;2.53;;
4508;SDS011;2267;48.816;9.230;2022-07-06T00:35:50;4.80;;;2.60;;
4508;SDS011;2267;48.816;9.230;2022-07-06T00:38:17;3.90;;;2.35;;
4508;SDS011;2267;48.816;9.230;2022-07-06T00:40:44;4.50;;;2.50;;
4508;SDS011;2267;48.816;9.230;2022-07-06T00:43:11;5.80;;;2.60;;
4508;SDS011;2267;48.816;9.230;2022-07-06T00:45:38;3.63;;;2.30;;
4508;SDS011;2267;48.816;9.230;2022-07-06T00:48:05;5.60;;;2.65;;
4508;SDS011;2267;48.816;9.230;2022-07-06T00:50:32;3.08;;;2.40;;
4508;SDS011;2267;48.816;9.230;2022-07-06T00:53:01;5.10;;;3.00;;
4508;SDS011;2267;48.816;9.230;2022-07-06T00:55:32;3.80;;;2.80;;
4508;SDS011;2267;48.816;9.230;2022-07-06T00:58:01;4.30;;;2.70;;
4508;SDS011;2267;48.816;9.230;2022-07-06T01:00:30;4.80;;;2.88;;
4508;SDS011;2267;48.816;9.230;2022-07-06T01:02:57;4.40;;;3.07;;
4508;SDS011;2267;48.816;9.230;2022-07-06T01:05:24;3.60;;;2.73;;
4508;SDS011;2267;48.816;9.230;2022-07-06T01:07:52;4.67;;;2.60;;
4508;SDS011;2267;48.816;9.230;2022-07-06T01:10:20;4.22;;;3.03;;
4508;SDS011;2267;48.816;9.230;2022-07-06T01:12:47;3.40;;;2.60;;
4508;SDS011;2267;48.816;9.230;2022-07-06T01:15:19;3.40;;;2.50;;
4508;SDS011;2267;48.816;9.230;2022-07-06T01:17:48;2.78;;;2.53;;
4508;SDS011;2267;48.816;9.230;2022-07-06T01:20:19;3.90;;;2.78;;
4508;SDS011;2267;48.816;9.230;2022-07-06T01:22:47;3.50;;;2.55;;
4508;SDS011;2267;48.816;9.230;2022-07-06T01:25:15;4.00;;;2.42;;
4508;SDS011;2267;48.816;9.230;2022-07-06T01:27:43;4.67;;;2.77;;
4508;SDS011;2267;48.816;9.230;2022-07-06T01:30:14;4.20;;;2.70;;
4508;SDS011;2267;48.816;9.230;2022-07-06T01:32:42;6.30;;;2.78;;
4508;SDS011;2267;48.816;9.230;2022-07-06T01:35:11;4.40;;;2.75;;
4508;SDS011;2267;48.816;9.230;2022-07-06T01:37:39;3.15;;;2.50;;
4508;SDS011;2267;48.816;9.230;2022-07-06T01:40:07;4.05;;;2.60;;
4508;SDS011;2267;48.816;9.230;2022-07-06T01:42:36;3.42;;;2.60;;
4508;SDS011;2267;48.816;9.230;2022-07-06T01:45:04;4.03;;;2.60;;
4508;SDS011;2267;48.816;9.230;2022-07-06T01:47:32;4.43;;;2.80;;
4508;SDS011;2267;48.816;9.230;2022-07-06T01:50:00;5.07;;;2.42;;
4508;SDS011;2267;48.816;9.230;2022-07-06T01:52:29;2.70;;;2.10;;
4508;SDS011;2267;48.816;9.230;2022-07-06T01:54:56;4.30;;;2.80;;
4508;SDS011;2267;48.816;9.230;2022-07-06T01:57:23;3.45;;;2.60;;
4508;SDS011;2267;48.816;9.230;2022-07-06T01:59:50;3.10;;;2.15;;
4508;SDS011;2267;48.816;9.230;2022-07-06T02:02:17;3.00;;;2.17;;
4508;SDS011;2267;48.816;9.230;2022-07-06T02:04:44;3.33;;;2.40;;
4508;SDS011;2267;48.816;9.230;2022-07-06T02:07:11;2.90;;;2.33;;
4508;SDS011;2267;48.816;9.230;2022-07-06T02:09:38;3.10;;;2.38;;
4508;SDS011;2267;48.816;9.230;2022-07-06T02:12:05;4.70;;;2.40;;
4508;SDS011;2267;48.816;9.230;2022-07-06T02:14:32;4.55;;;2.30;;
4508;SDS011;2267;48.816;9.230;2022-07-06T02:16:59;2.75;;;2.20;;
4508;SDS011;2267;48.816;9.230;2022-07-06T02:19:26;3.50;;;2.40;;
4508;SDS011;2267;48.816;9.230;2022-07-06T02:21:53;3.20;;;2.40;;
4508;SDS011;2267;48.816;9.230;2022-07-06T02:24:20;3.45;;;2.80;;
4508;SDS011;2267;48.816;9.230;2022-07-06T02:26:46;4.78;;;2.25;;
4508;SDS011;2267;48.816;9.230;2022-07-06T02:29:13;2.83;;;2.30;;
4508;SDS011;2267;48.816;9.230;2022-07-06T02:31:40;4.90;;;2.50;;
4508;SDS011;2267;48.816;9.230;2022-07-06T02:34:07;3.97;;;2.42;;
4508;SDS011;2267;48.816;9.230;2022-07-06T02:36:34;3.58;;;2.50;;
4508;SDS011;2267;48.816;9.230;2022-07-06T02:39:01;3.30;;;2.10;;
4508;SDS011;2267;48.816;9.230;2022-07-06T02:41:27;3.63;;;2.50;;
4508;SDS011;2267;48.816;9.230;2022-07-06T02:43:54;3.45;;;2.40;;
4508;SDS011;2267;48.816;9.230;2022-07-06T02:46:21;3.00;;;2.40;;
4508;SDS011;2267;48.816;9.230;2022-07-06T02:48:48;4.45;;;2.60;;
4508;SDS011;2267;48.816;9.230;2022-07-06T02:51:14;2.40;;;2.05;;
4508;SDS011;2267;48.816;9.230;2022-07-06T02:53:41;3.25;;;2.10;;
4508;SDS011;2267;48.816;9.230;2022-07-06T02:56:08;3.78;;;2.30;;
4508;SDS011;2267;48.816;9.230;2022-07-06T02:58:35;2.85;;;2.30;;
4508;SDS011;2267;48.816;9.230;2022-07-06T03:01:01;3.70;;;2.60;;
4508;SDS011;2267;48.816;9.230;2022-07-06T03:03:28;3.47;;;2.35;;
4508;SDS011;2267;48.816;9.230;2022-07-06T03:05:55;3.13;;;2.35;;
4508;SDS011;2267;48.816;9.230;2022-07-06T03:08:22;3.70;;;2.40;;
4508;SDS011;2267;48.816;9.230;2022-07-06T03:10:49;5.70;;;2.70;;
4508;SDS011;2267;48.816;9.230;2022-07-06T03:13:16;4.43;;;2.50;;
4508;SDS011;2267;48.816;9.230;2022-07-06T03:15:43;3.78;;;2.50;;
4508;SDS011;2267;48.816;9.230;2022-07-06T03:18:10;3.60;;;2.65;;
4508;SDS011;2267;48.816;9.230;2022-07-06T03:20:37;5.00;;;2.60;;
4508;SDS011;2267;48.816;9.230;2022-07-06T03:23:04;3.20;;;2.60;;
4508;SDS011;2267;48.816;9.230;2022-07-06T03:25:30;4.50;;;2.57;;
4508;SDS011;2267;48.816;9.230;2022-07-06T03:27:58;4.50;;;2.83;;
4508;SDS011;2267;48.816;9.230;2022-07-06T03:30:25;4.15;;;2.72;;
4508;SDS011;2267;48.816;9.230;2022-07-06T03:32:52;4.53;;;2.63;;
4508;SDS011;2267;48.816;9.230;2022-07-06T03:35:19;3.97;;;2.60;;
4508;SDS011;2267;48.816;9.230;2022-07-06T03:37:46;3.33;;;2.60;;
4508;SDS011;2267;48.816;9.230;2022-07-06T03:40:13;4.28;;;2.20;;
4508;SDS011;2267;48.816;9.230;2022-07-06T03:42:41;3.80;;;2.40;;
4508;SDS011;2267;48.816;9.230;2022-07-06T03:45:08;3.40;;;2.80;;
4508;SDS011;2267;48.816;9.230;2022-07-06T03:47:35;3.63;;;2.53;;
4508;SDS011;2267;48.816;9.230;2022-07-06T03:50:02;4.53;;;2.50;;
4508;SDS011;2267;48.816;9.230;2022-07-06T03:52:29;3.15;;;2.80;;
4508;SDS011;2267;48.816;9.230;2022-07-06T03:54:56;4.28;;;2.60;;
4508;SDS011;2267;48.816;9.230;2022-07-06T03:57:23;3.83;;;2.63;;
4508;SDS011;2267;48.816;9.230;2022-07-06T03:59:50;4.15;;;2.70;;
4508;SDS011;2267;48.816;9.230;2022-07-06T04:02:16;4.45;;;2.90;;
4508;SDS011;2267;48.816;9.230;2022-07-06T04:04:43;3.53;;;2.67;;
4508;SDS011;2267;48.816;9.230;2022-07-06T04:07:10;3.42;;;2.60;;
4508;SDS011;2267;48.816;9.230;2022-07-06T04:09:37;4.00;;;2.70;;
4508;SDS011;2267;48.816;9.230;2022-07-06T04:12:04;4.50;;;3.25;;
4508;SDS011;2267;48.816;9.230;2022-07-06T04:14:31;3.83;;;2.90;;
4508;SDS011;2267;48.816;9.230;2022-07-06T04:16:58;5.97;;;2.80;;
4508;SDS011;2267;48.816;9.230;2022-07-06T04:19:25;4.63;;;2.60;;
4508;SDS011;2267;48.816;9.230;2022-07-06T04:21:51;3.47;;;2.95;;
4508;SDS011;2267;48.816;9.230;2022-07-06T04:24:18;4.25;;;3.10;;
4508;SDS011;2267;48.816;9.230;2022-07-06T04:26:45;3.42;;;2.83;;
4508;SDS011;2267;48.816;9.230;2022-07-06T04:29:12;3.80;;;2.95;;
4508;SDS011;2267;48.816;9.230;2022-07-06T04:31:38;4.03;;;3.13;;
4508;SDS011;2267;48.816;9.230;2022-07-06T04:34:05;4.80;;;3.00;;
4508;SDS011;2267;48.816;9.230;2022-07-06T04:36:32;4.40;;;3.50;;
4508;SDS011;2267;48.816;9.230;2022-07-06T04:38:59;4.35;;;3.10;;
4508;SDS011;2267;48.816;9.230;2022-07-06T04:41:26;5.35;;;3.25;;
4508;SDS011;2267;48.816;9.230;2022-07-06T04:43:53;5.40;;;3.00;;
4508;SDS011;2267;48.816;9.230;2022-07-06T04:46:19;4.53;;;3.08;;
4508;SDS011;2267;48.816;9.230;2022-07-06T04:48:46;4.60;;;3.70;;
4508;SDS011;2267;48.816;9.230;2022-07-06T04:51:13;4.50;;;3.38;;
4508;SDS011;2267;48.816;9.230;2022-07-06T04:53:40;5.55;;;3.90;;
4508;SDS011;2267;48.816;9.230;2022-07-06T04:56:07;5.25;;;3.50;;
4508;SDS011;2267;48.816;9.230;2022-07-06T04:58:34;5.33;;;3.77;;
4508;SDS011;2267;48.816;9.230;2022-07-06T05:01:00;4.18;;;3.20;;
4508;SDS011;2267;48.816;9.230;2022-07-06T05:03:27;7.10;;;3.78;;
4508;SDS011;2267;48.816;9.230;2022-07-06T05:05:54;5.40;;;3.40;;
4508;SDS011;2267;48.816;9.230;2022-07-06T05:08:21;6.28;;;3.70;;
4508;SDS011;2267;48.816;9.230;2022-07-06T05:10:49;6.00;;;3.93;;
4508;SDS011;2267;48.816;9.230;2022-07-06T05:13:15;4.50;;;4.10;;
4508;SDS011;2267;48.816;9.230;2022-07-06T05:15:42;4.75;;;3.70;;
4508;SDS011;2267;48.816;9.230;2022-07-06T05:18:09;4.68;;;3.58;;
4508;SDS011;2267;48.816;9.230;2022-07-06T05:20:36;5.30;;;3.50;;
4508;SDS011;2267;48.816;9.230;2022-07-06T05:23:03;4.90;;;3.60;;
4508;SDS011;2267;48.816;9.230;2022-07-06T05:25:30;7.60;;;3.70;;
4508;SDS011;2267;48.816;9.230;2022-07-06T05:27:57;4.78;;;4.00;;
4508;SDS011;2267;48.816;9.230;2022-07-06T05:30:25;4.78;;;3.30;;
4508;SDS011;2267;48.816;9.230;2022-07-06T05:32:52;3.90;;;3.13;;
4508;SDS011;2267;48.816;9.230;2022-07-06T05:35:19;4.45;;;3.03;;
4508;SDS011;2267;48.816;9.230;2022-07-06T05:38:06;5.10;;;3.13;;
4508;SDS011;2267;48.816;9.230;2022-07-06T05:40:32;3.53;;;2.70;;
4508;SDS011;2267;48.816;9.230;2022-07-06T05:42:59;3.95;;;2.90;;
4508;SDS011;2267;48.816;9.230;2022-07-06T05:45:26;4.00;;;3.00;;
4508;SDS011;2267;48.816;9.230;2022-07-06T05:47:53;4.40;;;3.05;;
4508;SDS011;2267;48.816;9.230;2022-07-06T05:50:39;6.70;;;3.08;;
4508;SDS011;2267;48.816;9.230;2022-07-06T05:53:06;4.93;;;2.80;;
4508;SDS011;2267;48.816;9.230;2022-07-06T05:55:44;3.40;;;2.83;;
4508;SDS011;2267;48.816;9.230;2022-07-06T05:58:12;4.32;;;3.00;;
4508;SDS011;2267;48.816;9.230;2022-07-06T06:00:39;6.30;;;3.30;;
4508;SDS011;2267;48.816;9.230;2022-07-06T06:03:06;3.70;;;3.30;;
4508;SDS011;2267;48.816;9.230;2022-07-06T06:05:33;4.15;;;3.00;;
4508;SDS011;2267;48.816;9.230;2022-07-06T06:08:00;3.70;;;2.90;;
4508;SDS011;2267;48.816;9.230;2022-07-06T06:10:27;5.15;;;3.20;;
4508;SDS011;2267;48.816;9.230;2022-07-06T06:12:54;4.57;;;2.90;;
4508;SDS011;2267;48.816;9.230;2022-07-06T06:15:21;4.30;;;3.30;;
4508;SDS011;2267;48.816;9.230;2022-07-06T06:17:48;3.53;;;2.95;;
4508;SDS011;2267;48.816;9.230;2022-07-06T06:20:15;5.60;;;2.90;;
4508;SDS011;2267;48.816;9.230;2022-07-06T06:22:51;4.40;;;3.00;;
4508;SDS011;2267;48.816;9.230;2022-07-06T06:25:29;4.53;;;3.25;;
4508;SDS011;2267;48.816;9.230;2022-07-06T06:27:58;6.38;;;3.20;;
4508;SDS011;2267;48.816;9.230;2022-07-06T06:30:25;4.65;;;3.40;;
4508;SDS011;2267;48.816;9.230;2022-07-06T06:33:04;5.60;;;3.40;;
4508;SDS011;2267;48.816;9.230;2022-07-06T06:35:46;4.00;;;3.30;;
4508;SDS011;2267;48.816;9.230;2022-07-06T06:38:14;4.68;;;3.33;;
4508;SDS011;2267;48.816;9.230;2022-07-06T06:40:42;4.32;;;3.10;;
4508;SDS011;2267;48.816;9.230;2022-07-06T06:43:09;5.78;;;3.40;;
4508;SDS011;2267;48.816;9.230;2022-07-06T06:45:36;5.28;;;3.20;;
4508;SDS011;2267;48.816;9.230;2022-07-06T06:48:04;5.68;;;3.40;;
4508;SDS011;2267;48.816;9.230;2022-07-06T06:50:31;5.65;;;3.40;;
4508;SDS011;2267;48.816;9.230;2022-07-06T06:52:58;4.75;;;3.60;;
4508;SDS011;2267;48.816;9.230;2022-07-06T06:55:25;4.80;;;3.20;;
4508;SDS011;2267;48.816;9.230;2022-07-06T06:57:52;5.90;;;3.10;;
4508;SDS011;2267;48.816;9.230;2022-07-06T07:00:19;4.25;;;3.53;;
4508;SDS011;2267;48.816;9.230;2022-07-06T07:02:45;5.60;;;3.13;;
4508;SDS011;2267;48.816;9.230;2022-07-06T07:05:13;5.70;;;3.30;;
4508;SDS011;2267;48.816;9.230;2022-07-06T07:07:40;5.40;;;3.60;;
4508;SDS011;2267;48.816;9.230;2022-07-06T07:10:07;5.50;;;5.00;;
4508;SDS011;2267;48.816;9.230;2022-07-06T07:12:34;4.30;;;3.90;;
4508;SDS011;2267;48.816;9.230;2022-07-06T07:15:01;7.63;;;4.28;;
4508;SDS011;2267;48.816;9.230;2022-07-06T07:17:28;5.15;;;3.50;;
4508;SDS011;2267;48.816;9.230;2022-07-06T07:19:55;5.75;;;3.63;;
4508;SDS011;2267;48.816;9.230;2022-07-06T07:22:23;3.97;;;3.55;;
4508;SDS011;2267;48.816;9.230;2022-07-06T07:24:50;4.82;;;3.40;;
4508;SDS011;2267;48.816;9.230;2022-07-06T07:27:17;4.32;;;3.22;;
4508;SDS011;2267;48.816;9.230;2022-07-06T07:29:44;9.20;;;2.80;;
4508;SDS011;2267;48.816;9.230;2022-07-06T07:32:11;5.95;;;3.20;;
4508;SDS011;2267;48.816;9.230;2022-07-06T07:34:37;6.40;;;3.20;;
4508;SDS011;2267;48.816;9.230;2022-07-06T07:37:04;3.90;;;3.22;;
4508;SDS011;2267;48.816;9.230;2022-07-06T07:39:31;5.13;;;2.90;;
4508;SDS011;2267;48.816;9.230;2022-07-06T07:41:58;4.70;;;3.30;;
4508;SDS011;2267;48.816;9.230;2022-07-06T07:44:25;3.47;;;3.10;;
4508;SDS011;2267;48.816;9.230;2022-07-06T07:46:53;4.95;;;3.22;;
4508;SDS011;2267;48.816;9.230;2022-07-06T07:49:20;5.63;;;3.20;;
4508;SDS011;2267;48.816;9.230;2022-07-06T07:51:50;5.75;;;3.28;;
4508;SDS011;2267;48.816;9.230;2022-07-06T07:54:17;4.13;;;3.40;;
4508;SDS011;2267;48.816;9.230;2022-07-06T07:56:44;4.10;;;3.40;;
4508;SDS011;2267;48.816;9.230;2022-07-06T07:59:11;5.85;;;3.40;;
4508;SDS011;2267;48.816;9.230;2022-07-06T08:01:37;4.20;;;3.50;;
4508;SDS011;2267;48.816;9.230;2022-07-06T08:04:04;4.82;;;3.47;;
4508;SDS011;2267;48.816;9.230;2022-07-06T08:06:32;4.03;;;3.30;;
4508;SDS011;2267;48.816;9.230;2022-07-06T08:08:59;4.30;;;3.70;;
4508;SDS011;2267;48.816;9.230;2022-07-06T08:11:26;4.95;;;3.30;;
4508;SDS011;2267;48.816;9.230;2022-07-06T08:13:53;4.93;;;3.50;;
4508;SDS011;2267;48.816;9.230;2022-07-06T08:16:20;4.37;;;3.40;;
4508;SDS011;2267;48.816;9.230;2022-07-06T08:18:47;4.18;;;3.38;;
4508;SDS011;2267;48.816;9.230;2022-07-06T08:21:14;4.78;;;3.00;;
4508;SDS011;2267;48.816;9.230;2022-07-06T08:23:51;3.70;;;2.90;;
4508;SDS011;2267;48.816;9.230;2022-07-06T08:26:18;3.95;;;3.15;;
4508;SDS011;2267;48.816;9.230;2022-07-06T08:28:45;4.90;;;3.33;;
4508;SDS011;2267;48.816;9.230;2022-07-06T08:31:12;5.55;;;3.92;;
4508;SDS011;2267;48.816;9.230;2022-07-06T08:34:00;3.45;;;3.15;;
4508;SDS011;2267;48.816;9.230;2022-07-06T08:36:27;4.00;;;3.70;;
4508;SDS011;2267;48.816;9.230;2022-07-06T08:38:54;5.20;;;3.90;;
4508;SDS011;2267;48.816;9.230;2022-07-06T08:41:23;4.82;;;3.40;;
4508;SDS011;2267;48.816;9.230;2022-07-06T08:43:51;5.70;;;3.20;;
4508;SDS011;2267;48.816;9.230;2022-07-06T08:46:19;5.00;;;3.60;;
4508;SDS011;2267;48.816;9.230;2022-07-06T08:48:46;5.50;;;3.70;;
4508;SDS011;2267;48.816;9.230;2022-07-06T08:51:14;3.50;;;3.20;;
4508;SDS011;2267;48.816;9.230;2022-07-06T08:53:41;4.05;;;3.53;;
4508;SDS011;2267;48.816;9.230;2022-07-06T08:56:09;5.88;;;3.92;;
4508;SDS011;2267;48.816;9.230;2022-07-06T08:58:36;5.80;;;3.70;;
4508;SDS011;2267;48.816;9.230;2022-07-06T09:01:10;6.10;;;3.95;;
4508;SDS011;2267;48.816;9.230;2022-07-06T09:03:41;6.90;;;4.22;;
4508;SDS011;2267;48.816;9.230;2022-07-06T09:06:10;4.80;;;3.50;;
4508;SDS011;2267;48.816;9.230;2022-07-06T09:08:40;4.63;;;3.25;;
4508;SDS011;2267;48.816;9.230;2022-07-06T09:11:07;5.30;;;3.40;;
4508;SDS011;2267;48.816;9.230;2022-07-06T09:13:34;5.10;;;3.50;;
4508;SDS011;2267;48.816;9.230;2022-07-06T09:16:10;3.47;;;3.17;;
4508;SDS011;2267;48.816;9.230;2022-07-06T09:18:59;4.80;;;3.67;;
4508;SDS011;2267;48.816;9.230;2022-07-06T09:21:27;4.60;;;3.10;;
4508;SDS011;2267;48.816;9.230;2022-07-06T09:24:00;4.95;;;3.33;;
4508;SDS011;2267;48.816;9.230;2022-07-06T09:26:30;4.53;;;3.67;;
4508;SDS011;2267;48.816;9.230;2022-07-06T09:28:57;4.03;;;3.35;;
4508;SDS011;2267;48.816;9.230;2022-07-06T09:31:26;3.40;;;3.10;;
4508;SDS011;2267;48.816;9.230;2022-07-06T09:33:57;3.70;;;3.08;;
4508;SDS011;2267;48.816;9.230;2022-07-06T09:39:15;5.05;;;3.30;;
4508;SDS011;2267;48.816;9.230;2022-07-06T09:41:43;6.82;;;3.70;;
4508;SDS011;2267;48.816;9.230;2022-07-06T09:44:21;4.80;;;3.70;;
4508;SDS011;2267;48.816;9.230;2022-07-06T09:46:49;4.30;;;3.13;;
4508;SDS011;2267;48.816;9.230;2022-07-06T09:49:17;4.88;;;3.10;;
4508;SDS011;2267;48.816;9.230;2022-07-06T09:51:46;5.15;;;3.58;;
4508;SDS011;2267;48.816;9.230;2022-07-06T09:54:17;5.28;;;3.50;;
4508;SDS011;2267;48.816;9.230;2022-07-06T09:56:44;4.55;;;3.50;;
4508;SDS011;2267;48.816;9.230;2022-07-06T09:59:21;4.97;;;3.20;;
4508;SDS011;2267;48.816;9.230;2022-07-06T10:01:53;3.60;;;2.93;;
4508;SDS011;2267;48.816;9.230;2022-07-06T10:04:25;4.35;;;3.22;;
4508;SDS011;2267;48.816;9.230;2022-07-06T10:06:53;6.30;;;3.60;;
4508;SDS011;2267;48.816;9.230;2022-07-06T10:09:22;5.57;;;3.30;;
4508;SDS011;2267;48.816;9.230;2022-07-06T10:11:51;5.22;;;3.10;;
4508;SDS011;2267;48.816;9.230;2022-07-06T10:14:24;3.95;;;3.20;;
4508;SDS011;2267;48.816;9.230;2022-07-06T10:16:52;3.45;;;3.13;;
4508;SDS011;2267;48.816;9.230;2022-07-06T10:19:21;4.50;;;3.00;;
4508;SDS011;2267;48.816;9.230;2022-07-06T10:21:48;4.63;;;3.03;;
4508;SDS011;2267;48.816;9.230;2022-07-06T10:24:15;3.45;;;2.90;;
4508;SDS011;2267;48.816;9.230;2022-07-06T10:26:43;4.30;;;2.90;;
4508;SDS011;2267;48.816;9.230;2022-07-06T10:29:12;4.10;;;3.53;;
4508;SDS011;2267;48.816;9.230;2022-07-06T10:31:40;6.65;;;4.00;;
4508;SDS011;2267;48.816;9.230;2022-07-06T10:34:11;4.75;;;3.70;;
4508;SDS011;2267;48.816;9.230;2022-07-06T10:36:40;5.30;;;3.30;;
4508;SDS011;2267;48.816;9.230;2022-07-06T10:39:08;4.25;;;3.30;;
4508;SDS011;2267;48.816;9.230;2022-07-06T10:41:56;4.78;;;3.30;;
4508;SDS011;2267;48.816;9.230;2022-07-06T10:44:26;5.67;;;3.27;;
4508;SDS011;2267;48.816;9.230;2022-07-06T10:46:55;3.45;;;3.15;;
4508;SDS011;2267;48.816;9.230;2022-07-06T10:49:26;5.20;;;3.40;;
4508;SDS011;2267;48.816;9.230;2022-07-06T10:52:16;5.03;;;3.60;;
4508;SDS011;2267;48.816;9.230;2022-07-06T10:54:44;5.10;;;3.00;;
4508;SDS011;2267;48.816;9.230;2022-07-06T10:57:12;4.53;;;2.90;;
4508;SDS011;2267;48.816;9.230;2022-07-06T11:00:04;3.97;;;2.92;;
4508;SDS011;2267;48.816;9.230;2022-07-06T11:02:37;4.63;;;2.83;;
4508;SDS011;2267;48.816;9.230;2022-07-06T11:05:10;4.38;;;3.10;;
4508;SDS011;2267;48.816;9.230;2022-07-06T11:07:50;6.05;;;3.42;;
4508;SDS011;2267;48.816;9.230;2022-07-06T11:10:17;6.10;;;3.70;;
4508;SDS011;2267;48.816;9.230;2022-07-06T11:12:46;5.30;;;3.42;;
4508;SDS011;2267;48.816;9.230;2022-07-06T11:15:32;4.30;;;3.22;;
4508;SDS011;2267;48.816;9.230;2022-07-06T11:18:18;4.50;;;3.28;;
4508;SDS011;2267;48.816;9.230;2022-07-06T11:23:41;5.47;;;3.50;;
4508;SDS011;2267;48.816;9.230;2022-07-06T11:26:09;4.00;;;3.20;;
4508;SDS011;2267;48.816;9.230;2022-07-06T11:28:37;5.07;;;3.00;;
4508;SDS011;2267;48.816;9.230;2022-07-06T11:31:04;6.93;;;3.50;;
4508;SDS011;2267;48.816;9.230;2022-07-06T11:33:32;3.60;;;3.00;;
4508;SDS011;2267;48.816;9.230;2022-07-06T11:38:46;3.75;;;2.90;;
4508;SDS011;2267;48.816;9.230;2022-07-06T11:41:15;3.28;;;2.72;;
4508;SDS011;2267;48.816;9.230;2022-07-06T11:43:43;3.20;;;2.80;;
4508;SDS011;2267;48.816;9.230;2022-07-06T11:46:45;4.40;;;3.00;;
4508;SDS011;2267;48.816;9.230;2022-07-06T11:49:05;4.30;;;3.38;;
4508;SDS011;2267;48.816;9.230;2022-07-06T11:51:35;6.00;;;3.10;;
4508;SDS011;2267;48.816;9.230;2022-07-06T11:54:09;4.82;;;2.92;;
4508;SDS011;2267;48.816;9.230;2022-07-06T11:59:36;6.28;;;3.20;;
4508;SDS011;2267;48.816;9.230;2022-07-06T12:02:08;5.20;;;3.00;;
4508;SDS011;2267;48.816;9.230;2022-07-06T12:04:43;5.63;;;3.30;;
4508;SDS011;2267;48.816;9.230;2022-07-06T12:07:12;6.90;;;3.10;;
4508;SDS011;2267;48.816;9.230;2022-07-06T12:09:41;4.80;;;3.30;;
4508;SDS011;2267;48.816;9.230;2022-07-06T12:12:10;5.40;;;3.55;;
4508;SDS011;2267;48.816;9.230;2022-07-06T12:14:38;4.13;;;3.33;;
4508;SDS011;2267;48.816;9.230;2022-07-06T12:17:06;4.35;;;3.15;;
4508;SDS011;2267;48.816;9.230;2022-07-06T12:19:38;6.40;;;3.45;;
4508;SDS011;2267;48.816;9.230;2022-07-06T12:22:06;3.90;;;3.00;;
4508;SDS011;2267;48.816;9.230;2022-07-06T12:24:34;5.10;;;3.20;;
4508;SDS011;2267;48.816;9.230;2022-07-06T12:27:11;4.18;;;3.00;;
4508;SDS011;2267;48.816;9.230;2022-07-06T12:29:38;4.07;;;3.00;;
4508;SDS011;2267;48.816;9.230;2022-07-06T12:32:05;4.38;;;2.67;;
4508;SDS011;2267;48.816;9.230;2022-07-06T12:34:32;6.45;;;3.20;;
4508;SDS011;2267;48.816;9.230;2022-07-06T12:37:06;4.15;;;3.45;;
4508;SDS011;2267;48.816;9.230;2022-07-06T12:39:41;4.35;;;3.28;;
4508;SDS011;2267;48.816;9.230;2022-07-06T12:42:08;4.50;;;3.80;;
4508;SDS011;2267;48.816;9.230;2022-07-06T12:44:44;4.60;;;3.10;;
4508;SDS011;2267;48.816;9.230;2022-07-06T12:47:12;4.77;;;3.00;;
4508;SDS011;2267;48.816;9.230;2022-07-06T12:49:47;5.57;;;3.42;;
4508;SDS011;2267;48.816;9.230;2022-07-06T12:52:16;7.43;;;3.88;;
4508;SDS011;2267;48.816;9.230;2022-07-06T12:57:15;4.72;;;3.20;;
4508;SDS011;2267;48.816;9.230;2022-07-06T13:02:25;6.60;;;3.50;;
4508;SDS011;2267;48.816;9.230;2022-07-06T13:05:23;5.30;;;2.90;;
4508;SDS011;2267;48.816;9.230;2022-07-06T13:07:54;5.72;;;3.20;;
4508;SDS011;2267;48.816;9.230;2022-07-06T13:10:23;5.45;;;2.85;;
4508;SDS011;2267;48.816;9.230;2022-07-06T13:12:51;5.55;;;3.28;;
4508;SDS011;2267;48.816;9.230;2022-07-06T13:15:18;4.93;;;2.85;;
4508;SDS011;2267;48.816;9.230;2022-07-06T13:17:46;4.65;;;2.70;;
4508;SDS011;2267;48.816;9.230;2022-07-06T13:20:13;4.83;;;2.50;;
4508;SDS011;2267;48.816;9.230;2022-07-06T13:22:43;6.78;;;3.20;;
4508;SDS011;2267;48.816;9.230;2022-07-06T13:25:10;6.68;;;2.90;;
4508;SDS011;2267;48.816;9.230;2022-07-06T13:27:37;5.00;;;3.00;;
4508;SDS011;2267;48.816;9.230;2022-07-06T13:30:04;4.55;;;2.88;;
4508;SDS011;2267;48.816;9.230;2022-07-06T13:32:31;3.95;;;3.05;;
4508;SDS011;2267;48.816;9.230;2022-07-06T13:34:59;3.40;;;2.30;;
4508;SDS011;2267;48.816;9.230;2022-07-06T13:37:25;4.18;;;2.80;;
4508;SDS011;2267;48.816;9.230;2022-07-06T13:39:52;3.60;;;2.70;;
4508;SDS011;2267;48.816;9.230;2022-07-06T13:42:19;4.45;;;2.40;;
4508;SDS011;2267;48.816;9.230;2022-07-06T13:44:46;4.20;;;2.80;;
4508;SDS011;2267;48.816;9.230;2022-07-06T13:47:13;4.05;;;2.65;;
4508;SDS011;2267;48.816;9.230;2022-07-06T13:49:40;4.07;;;2.50;;
4508;SDS011;2267;48.816;9.230;2022-07-06T13:52:08;3.53;;;2.63;;
4508;SDS011;2267;48.816;9.230;2022-07-06T13:54:35;4.80;;;2.78;;
4508;SDS011;2267;48.816;9.230;2022-07-06T13:57:03;5.75;;;2.40;;
4508;SDS011;2267;48.816;9.230;2022-07-06T13:59:31;5.83;;;2.60;;
4508;SDS011;2267;48.816;9.230;2022-07-06T14:01:58;3.80;;;2.50;;
4508;SDS011;2267;48.816;9.230;2022-07-06T14:04:26;4.97;;;2.50;;
4508;SDS011;2267;48.816;9.230;2022-07-06T14:06:52;5.32;;;2.67;;
4508;SDS011;2267;48.816;9.230;2022-07-06T14:09:19;3.50;;;2.40;;
4508;SDS011;2267;48.816;9.230;2022-07-06T14:11:46;3.83;;;2.40;;
4508;SDS011;2267;48.816;9.230;2022-07-06T14:14:13;3.63;;;2.20;;
4508;SDS011;2267;48.816;9.230;2022-07-06T14:16:40;4.88;;;2.13;;
4508;SDS011;2267;48.816;9.230;2022-07-06T14:19:08;4.60;;;2.55;;
4508;SDS011;2267;48.816;9.230;2022-07-06T14:21:34;2.75;;;2.20;;
4508;SDS011;2267;48.816;9.230;2022-07-06T14:24:02;4.75;;;2.38;;
4508;SDS011;2267;48.816;9.230;2022-07-06T14:26:29;6.70;;;2.50;;
4508;SDS011;2267;48.816;9.230;2022-07-06T14:28:56;5.20;;;2.20;;
4508;SDS011;2267;48.816;9.230;2022-07-06T14:31:23;4.70;;;2.30;;
4508;SDS011;2267;48.816;9.230;2022-07-06T14:33:50;3.70;;;2.58;;
4508;SDS011;2267;48.816;9.230;2022-07-06T14:36:17;4.43;;;2.20;;
4508;SDS011;2267;48.816;9.230;2022-07-06T14:38:44;2.67;;;1.90;;
4508;SDS011;2267;48.816;9.230;2022-07-06T14:41:12;5.20;;;2.20;;
4508;SDS011;2267;48.816;9.230;2022-07-06T14:43:39;3.33;;;2.30;;
4508;SDS011;2267;48.816;9.230;2022-07-06T14:46:06;3.40;;;2.20;;
4508;SDS011;2267;48.816;9.230;2022-07-06T14:48:34;4.68;;;2.20;;
4508;SDS011;2267;48.816;9.230;2022-07-06T14:51:01;3.97;;;2.17;;
4508;SDS011;2267;48.816;9.230;2022-07-06T14:53:28;6.05;;;2.20;;
4508;SDS011;2267;48.816;9.230;2022-07-06T14:55:55;4.05;;;2.00;;
4508;SDS011;2267;48.816;9.230;2022-07-06T14:58:22;3.80;;;2.20;;
4508;SDS011;2267;48.816;9.230;2022-07-06T15:00:49;3.20;;;2.20;;
4508;SDS011;2267;48.816;9.230;2022-07-06T15:03:24;3.50;;;2.00;;
4508;SDS011;2267;48.816;9.230;2022-07-06T15:05:53;3.10;;;2.13;;
4508;SDS011;2267;48.816;9.230;2022-07-06T15:08:20;3.30;;;2.10;;
4508;SDS011;2267;48.816;9.230;2022-07-06T15:10:47;3.45;;;1.90;;
4508;SDS011;2267;48.816;9.230;2022-07-06T15:13:14;3.75;;;1.95;;
4508;SDS011;2267;48.816;9.230;2022-07-06T15:15:42;6.85;;;2.10;;
4508;SDS011;2267;48.816;9.230;2022-07-06T15:18:21;4.30;;;2.10;;
4508;SDS011;2267;48.816;9.230;2022-07-06T15:20:48;3.35;;;2.30;;
4508;SDS011;2267;48.816;9.230;2022-07-06T15:23:15;4.40;;;2.00;;
4508;SDS011;2267;48.816;9.230;2022-07-06T15:25:42;4.03;;;2.10;;
4508;SDS011;2267;48.816;9.230;2022-07-06T15:28:09;3.30;;;2.10;;
4508;SDS011;2267;48.816;9.230;2022-07-06T15:30:36;3.80;;;1.90;;
4508;SDS011;2267;48.816;9.230;2022-07-06T15:33:04;2.90;;;2.10;;
4508;SDS011;2267;48.816;9.230;2022-07-06T15:35:32;4.00;;;2.10;;
4508;SDS011;2267;48.816;9.230;2022-07-06T15:38:00;3.53;;;2.20;;
4508;SDS011;2267;48.816;9.230;2022-07-06T15:40:27;4.00;;;2.22;;
4508;SDS011;2267;48.816;9.230;2022-07-06T15:42:56;2.87;;;2.00;;
4508;SDS011;2267;48.816;9.230;2022-07-06T15:45:23;4.00;;;2.00;;
4508;SDS011;2267;48.816;9.230;2022-07-06T15:47:51;4.63;;;1.90;;
4508;SDS011;2267;48.816;9.230;2022-07-06T15:50:18;3.58;;;2.15;;
4508;SDS011;2267;48.816;9.230;2022-07-06T15:52:47;3.00;;;1.90;;
4508;SDS011;2267;48.816;9.230;2022-07-06T15:55:14;3.10;;;2.10;;